Friday, July 01, 2016
04:26 UTC
  |  Log In   |  Register Free
Airport Search:

Williamsburg-Jamestown Airport
(KJGG)

Williamsburg-Jamestown Airport Diagram
No Airport Diagram Available

FAA data valid effective May 26 2016 - Jul 21 2016 (unless otherwise noted).

 
 
 
 
 
 
 
 
 
 
 
 
 
 
Current Aviation Weather for KJGG

Weather Summary


The most recent METAR observation for JGG was updated at: 12:55 UTC
METAR for KJGG is not available. Closest METAR is for KFAF
KJGG  (most recent observation was updatred at 10:41 UTC)
010415Z AUTO 18004KT 5SM CLR 23/23 A3002 RMK AO1

KFAF  (8.2 nm NW)   (most recent observation was updated at 10:35 UTC)
010358Z AUTO 16002KT 10SM SCT140 22/21 A3000 RMK AO2 SLP162 T02210208 $

KPHF  (12.5 nm NW)   (most recent observation was updated at 10:35 UTC)
010354Z 00000KT 10SM CLR 22/21 A3002 RMK AO2 RAE06 SLP165 P0000 T02170211

TAF for KJGG is not available.
KFAF  (8.2 nm NW)   (most recent observation was updatred at 30:23 UTC)
AMD 302340Z 3023/0124 10010KT 9999 SCT030 BKN050 QNH2995INS TEMPO 3023/0103 10010G15KT 8000 -TSRA BKN040CB BECMG 0110/0111 22010G15KT 9999 BKN040 QNH2992INS BECMG 0117/0118 23010G15KT 9000 -SHRA BKN030 QNH2987INS TEMPO 0120/0123 23012G18KT 6000 -TSRA BKN030CB TX30/0118Z TN21/0108Z LAST NO AMDS AFT 0103 NEXT 0110


KPHF  (12.5 nm NW)   (most recent observation was updatred at 10:33 UTC)
AMD 010333Z 0104/0124 13005KT P6SM SCT040 BKN100 FM010800 18002KT 5SM BR BKN250 FM011300 20007KT P6SM BKN250 FM011700 21010KT P6SM BKN050 BKN250


KLFI  (19.4 nm NW)   (most recent observation was updatred at 10:10 UTC)
010100Z 0101/0207 10010KT 9999 SCT030 BKN050 QNH2999INS TEMPO 0101/0103 10010G15KT 6000 -TSRA BKN020CB BECMG 0114/0115 22010G15KT 9999 BKN030 QNH2994INS TEMPO 0118/0122 23012G18KT 6000 -TSRA BKN030CB TX31/0119Z TN20/0108Z
GlobalAir.com is loading additional information.
 Current Weather at JGG
72.0 F° (22.0 C°)

North winds at 0.0 mph
Pressure:
30.03 in
Humidity:
100%
Wind:
North at 0.0 mph
Dew Point:
71.6 F° (22.0 C°)
Visibility:
5.00 mi
JGG NOAA Radar




Find All Airport Services Find A Hotel Find A Rental Car Find A Golf Course Find A Restaurant $100 Hamburger



Airport Weather Forecast for KJGG

Translated METAR for KJGG (0415 UTC)
METAR:
KJGG 010415Z AUTO 18004KT 5SM CLR 23/23 A3002 RMK AO1
Conditions at:
KJGG (Williamsburg-Jamestown, VA) observed 0415 UTC 01 July 2016
Temperature:
23°C (73.4°F)
Dewpoint:
23°C (73.4°F) [RH = 100]
Pressure:
30.02 inches Hg (1016.6 mb)
Winds:
from the S (180 degrees) at 4.6 mph (4 knots: 2.1 m/s)
Visibility:
5 mile(s)
Ceiling:
at least 12,000 feet AGL
Clouds:
Clear below 12,000 feet AGL
Remarks:
site is un-manned
site is automated and does NOT have a precipitation sensor

FBO's on the Field
FBO Company Facility Photos Services Transportation Aviation Fuel Prices: Prices include tax
Catering Weather Repair Courtesy Rental Type 100LL JetA JetA+ MOGAS 8087
 
Williamsburg-Jamestown

This FBO has not yet been rated
FS:Shell
Last Updated: Jun-07
Login to update fuel prices
SS:
Contact Williamsburg-JamestownMore FBO Information
 
Add another FBO Facility Photos Catering Weather Repair Courtesy Rental Type 100LL JetA JetA+ MOGAS 8087
Services Transportation Aviation Fuel Prices: Prices include tax


model-print
model-print
model-print
model-print